Time;durP1;ratioP1;P1;durP2;ratioP2;P2;SDS_P1;SDS_P2;PMS_P1;PMS_P2;Temp;Humidity;BMP_temperature;BMP_pressure;BME280_temperature;BME280_humidity;BME280_pressure;Samples;Min_cycle;Max_cycle;Signal;HPM_P1;HPM_P2
2022/11/12 00:00:04;;;;;;;4.05;2.63;;;;;;;;;;5040154;28;20432;-39
2022/11/12 00:02:30;;;;;;;3.67;2.53;;;;;;;;;;5038489;28;20533;-39
2022/11/12 00:04:56;;;;;;;2.97;2.05;;;;;;;;;;5037194;28;20116;-39
2022/11/12 00:07:22;;;;;;;11.05;2.83;;;;;;;;;;5019221;28;20033;-40
2022/11/12 00:09:48;;;;;;;3.03;1.95;;;;;;;;;;5032340;28;20040;-39
2022/11/12 00:12:14;;;;;;;6.63;2.50;;;;;;;;;;5037296;28;20379;-41
2022/11/12 00:14:40;;;;;;;5.38;2.75;;;;;;;;;;5039555;28;20033;-39
2022/11/12 00:17:06;;;;;;;3.22;2.03;;;;;;;;;;5036357;28;20428;-39
2022/11/12 00:19:31;;;;;;;3.30;2.25;;;;;;;;;;5042040;28;20056;-39
2022/11/12 00:21:57;;;;;;;4.03;2.17;;;;;;;;;;5055779;28;20025;-39
2022/11/12 00:24:23;;;;;;;5.35;2.50;;;;;;;;;;5056732;28;20029;-43
2022/11/12 00:26:49;;;;;;;4.88;2.17;;;;;;;;;;5054620;28;20025;-39
2022/11/12 00:29:15;;;;;;;3.92;2.30;;;;;;;;;;5049338;28;20029;-40
2022/11/12 00:31:41;;;;;;;3.08;2.65;;;;;;;;;;5042080;28;20375;-40
2022/11/12 00:34:07;;;;;;;3.50;2.17;;;;;;;;;;5043593;28;20075;-39
2022/11/12 00:36:33;;;;;;;2.60;2.10;;;;;;;;;;5045391;28;20561;-39
2022/11/12 00:38:59;;;;;;;3.00;2.28;;;;;;;;;;5046352;28;20056;-39
2022/11/12 00:41:25;;;;;;;3.28;2.00;;;;;;;;;;5037786;28;20057;-43
2022/11/12 00:43:51;;;;;;;4.88;2.50;;;;;;;;;;5046786;28;20028;-39
2022/11/12 00:46:17;;;;;;;3.95;2.17;;;;;;;;;;5048348;28;20060;-39
2022/11/12 00:48:43;;;;;;;2.70;1.88;;;;;;;;;;5044624;28;20025;-39
2022/11/12 00:51:09;;;;;;;2.75;2.08;;;;;;;;;;5049629;28;20033;-39
2022/11/12 00:53:35;;;;;;;4.63;1.95;;;;;;;;;;5047943;28;20520;-41
2022/11/12 00:56:05;;;;;;;3.28;1.92;;;;;;;;;;5040292;28;20071;-43
2022/11/12 00:58:31;;;;;;;2.92;1.98;;;;;;;;;;5041351;28;20033;-39
2022/11/12 01:00:58;;;;;;;2.67;1.73;;;;;;;;;;5045544;28;20068;-39
2022/11/12 01:03:23;;;;;;;3.22;2.38;;;;;;;;;;5045971;28;20031;-43
2022/11/12 01:05:49;;;;;;;4.57;2.08;;;;;;;;;;5052075;28;20033;-39
2022/11/12 01:08:15;;;;;;;6.60;2.25;;;;;;;;;;5047587;28;20026;-40
2022/11/12 01:10:41;;;;;;;3.67;1.92;;;;;;;;;;5032013;28;20029;-39
2022/11/12 01:13:07;;;;;;;4.63;1.95;;;;;;;;;;5051176;28;20033;-39
2022/11/12 01:15:33;;;;;;;3.15;2.17;;;;;;;;;;5048037;28;20032;-39
2022/11/12 01:17:59;;;;;;;4.32;2.00;;;;;;;;;;5049280;28;20089;-39
2022/11/12 01:20:25;;;;;;;4.45;2.33;;;;;;;;;;5043610;28;20052;-43
2022/11/12 01:22:51;;;;;;;2.40;1.85;;;;;;;;;;5052564;28;20060;-39
2022/11/12 01:25:17;;;;;;;3.97;1.85;;;;;;;;;;5046956;28;20017;-39
2022/11/12 01:27:43;;;;;;;3.58;2.13;;;;;;;;;;5052470;28;20044;-39
2022/11/12 01:30:09;;;;;;;5.85;2.50;;;;;;;;;;5048928;28;20112;-39
2022/11/12 01:32:36;;;;;;;3.15;2.13;;;;;;;;;;5050691;28;20041;-39
2022/11/12 01:35:02;;;;;;;3.67;2.05;;;;;;;;;;5051467;28;20580;-39
2022/11/12 01:37:28;;;;;;;2.80;2.20;;;;;;;;;;5043809;28;20044;-40
2022/11/12 01:39:54;;;;;;;3.55;1.83;;;;;;;;;;5043363;28;20033;-39
2022/11/12 01:42:22;;;;;;;2.28;1.95;;;;;;;;;;5043363;28;20021;-42
2022/11/12 01:44:52;;;;;;;2.85;2.00;;;;;;;;;;5033579;28;20385;-39
2022/11/12 01:47:22;;;;;;;2.88;2.10;;;;;;;;;;5048336;28;20033;-39
2022/11/12 01:49:51;;;;;;;3.08;1.73;;;;;;;;;;5050362;28;20033;-39
2022/11/12 01:52:26;;;;;;;3.00;1.67;;;;;;;;;;5051495;28;20033;-39
2022/11/12 01:54:53;;;;;;;2.20;1.92;;;;;;;;;;5045934;28;20112;-40
2022/11/12 01:57:24;;;;;;;2.28;1.73;;;;;;;;;;5027449;28;20784;-39
2022/11/12 01:59:53;;;;;;;3.60;1.73;;;;;;;;;;5044622;28;20033;-39
2022/11/12 02:02:19;;;;;;;2.30;1.80;;;;;;;;;;5045543;28;20032;-39
2022/11/12 02:04:45;;;;;;;7.32;2.40;;;;;;;;;;5047690;28;20559;-41
2022/11/12 02:07:12;;;;;;;2.38;1.70;;;;;;;;;;5050276;28;20120;-39
2022/11/12 02:09:38;;;;;;;2.65;1.70;;;;;;;;;;5050393;28;20060;-39
2022/11/12 02:12:04;;;;;;;4.13;1.80;;;;;;;;;;5036741;28;20045;-38
2022/11/12 02:14:30;;;;;;;2.75;1.70;;;;;;;;;;5041742;28;20426;-39
2022/11/12 02:16:56;;;;;;;2.20;1.80;;;;;;;;;;5047225;28;20064;-39
2022/11/12 02:19:22;;;;;;;2.83;1.90;;;;;;;;;;5042614;28;20057;-43
2022/11/12 02:21:48;;;;;;;4.80;1.80;;;;;;;;;;5032433;28;20022;-39
2022/11/12 02:24:14;;;;;;;2.95;1.80;;;;;;;;;;5034659;28;20475;-42
2022/11/12 02:26:42;;;;;;;3.47;2.40;;;;;;;;;;5041943;28;20033;-40
2022/11/12 02:29:08;;;;;;;4.03;1.50;;;;;;;;;;5036373;28;20057;-39
2022/11/12 02:31:34;;;;;;;2.88;1.73;;;;;;;;;;5021751;28;20056;-39
2022/11/12 02:34:00;;;;;;;2.80;2.13;;;;;;;;;;5022554;28;20360;-39
2022/11/12 02:36:26;;;;;;;2.72;1.83;;;;;;;;;;5030058;28;20037;-45
2022/11/12 02:38:52;;;;;;;2.25;1.50;;;;;;;;;;5029005;28;20031;-39
2022/11/12 02:41:18;;;;;;;2.40;1.75;;;;;;;;;;5029634;28;20025;-39
2022/11/12 02:43:44;;;;;;;2.42;1.85;;;;;;;;;;5034239;28;20635;-39
2022/11/12 02:46:10;;;;;;;3.17;1.77;;;;;;;;;;5023180;28;20176;-39
2022/11/12 02:48:36;;;;;;;2.60;2.28;;;;;;;;;;5024288;28;20036;-39
2022/11/12 02:51:02;;;;;;;4.53;2.25;;;;;;;;;;5026319;28;20026;-39
2022/11/12 02:53:28;;;;;;;2.05;1.50;;;;;;;;;;5018866;28;20080;-39
2022/11/12 02:55:54;;;;;;;3.70;1.98;;;;;;;;;;5032923;28;20030;-39
2022/11/12 02:58:23;;;;;;;2.35;1.85;;;;;;;;;;5032443;28;20053;-39
2022/11/12 03:00:51;;;;;;;1.85;1.40;;;;;;;;;;5038225;28;20029;-39
2022/11/12 03:03:17;;;;;;;3.50;1.70;;;;;;;;;;5023231;28;20490;-42
2022/11/12 03:05:43;;;;;;;2.72;1.50;;;;;;;;;;5029621;28;20065;-39
2022/11/12 03:08:09;;;;;;;2.30;1.67;;;;;;;;;;5023939;28;20111;-39
2022/11/12 03:10:39;;;;;;;3.13;1.85;;;;;;;;;;5028644;28;20251;-40
2022/11/12 03:13:05;;;;;;;1.65;1.50;;;;;;;;;;5021513;28;20036;-39
2022/11/12 03:15:31;;;;;;;3.15;1.48;;;;;;;;;;5017434;28;20018;-40
2022/11/12 03:17:58;;;;;;;2.85;1.88;;;;;;;;;;5029638;28;20165;-39
2022/11/12 03:20:24;;;;;;;7.80;3.03;;;;;;;;;;5035906;28;20060;-43
2022/11/12 03:23:00;;;;;;;4.55;2.13;;;;;;;;;;5038742;28;20100;-40
2022/11/12 03:25:26;;;;;;;2.78;1.50;;;;;;;;;;5029034;28;20107;-45
2022/11/12 03:28:07;;;;;;;2.60;2.40;;;;;;;;;;5033493;28;20031;-39
2022/11/12 03:30:34;;;;;;;2.20;1.65;;;;;;;;;;5035711;28;20040;-39
2022/11/12 03:33:00;;;;;;;1.90;1.40;;;;;;;;;;5037914;28;20573;-39
2022/11/12 03:35:26;;;;;;;2.90;1.70;;;;;;;;;;5036432;28;20116;-43
2022/11/12 03:37:52;;;;;;;3.22;1.83;;;;;;;;;;5037847;28;20038;-39
2022/11/12 03:40:18;;;;;;;2.72;1.85;;;;;;;;;;5038729;28;20041;-39
2022/11/12 03:42:45;;;;;;;2.25;1.60;;;;;;;;;;5032322;28;20033;-39
2022/11/12 03:45:11;;;;;;;1.92;1.50;;;;;;;;;;5032830;28;20029;-39
2022/11/12 03:47:40;;;;;;;2.33;1.63;;;;;;;;;;5029992;28;20025;-39
2022/11/12 03:50:06;;;;;;;2.65;1.95;;;;;;;;;;5034217;28;20029;-39
2022/11/12 03:52:32;;;;;;;2.13;1.75;;;;;;;;;;5033038;28;20504;-39
2022/11/12 03:54:58;;;;;;;2.30;1.80;;;;;;;;;;5040824;28;20466;-39
2022/11/12 03:57:24;;;;;;;2.20;1.50;;;;;;;;;;5038420;28;20033;-43
2022/11/12 03:59:50;;;;;;;2.85;1.73;;;;;;;;;;5037839;28;20057;-39
2022/11/12 04:02:16;;;;;;;2.15;1.85;;;;;;;;;;5033418;28;20113;-40
2022/11/12 04:10:11;;;;;;;2.45;1.83;;;;;;;;;;5034599;28;20095;-39
2022/11/12 04:15:22;;;;;;;2.60;2.38;;;;;;;;;;5037050;28;20962;-39
2022/11/12 04:23:30;;;;;;;2.88;2.28;;;;;;;;;;5011635;28;20033;-40
2022/11/12 04:30:14;;;;;;;3.72;1.98;;;;;;;;;;5051043;28;20091;-39
2022/11/12 04:31:30;;;;;;;2.10;1.60;;;;;;;;;;5052761;28;20029;-41
2022/11/12 04:34:27;;;;;;;3.72;1.95;;;;;;;;;;5054531;28;20155;-39
2022/11/12 04:36:42;;;;;;;2.10;1.50;;;;;;;;;;5045320;28;20838;-39
2022/11/12 04:39:08;;;;;;;2.33;1.92;;;;;;;;;;5053741;28;20030;-39
2022/11/12 04:45:04;;;;;;;2.95;1.80;;;;;;;;;;5053997;28;20174;-39
2022/11/12 04:47:05;;;;;;;3.53;1.60;;;;;;;;;;5043739;28;20504;-39
2022/11/12 04:49:31;;;;;;;2.22;1.50;;;;;;;;;;5052970;28;20017;-39
2022/11/12 04:52:05;;;;;;;2.60;2.17;;;;;;;;;;5036435;28;20025;-39
2022/11/12 04:54:32;;;;;;;2.35;1.63;;;;;;;;;;5052351;28;20032;-40
2022/11/12 04:56:58;;;;;;;2.10;1.60;;;;;;;;;;5053770;28;20036;-42
2022/11/12 04:59:23;;;;;;;2.22;1.65;;;;;;;;;;5053414;28;20078;-43
2022/11/12 05:01:49;;;;;;;1.95;1.42;;;;;;;;;;5052850;28;20107;-39
2022/11/12 05:04:16;;;;;;;2.60;1.98;;;;;;;;;;5053316;28;20356;-39
2022/11/12 05:06:50;;;;;;;1.70;1.60;;;;;;;;;;5052801;28;20480;-39
2022/11/12 05:09:17;;;;;;;1.85;1.60;;;;;;;;;;5036069;28;20418;-39
2022/11/12 05:11:43;;;;;;;2.28;1.60;;;;;;;;;;5052470;28;20679;-39
2022/11/12 05:14:09;;;;;;;2.78;1.80;;;;;;;;;;5049615;28;20355;-45
2022/11/12 05:16:35;;;;;;;2.65;1.90;;;;;;;;;;5051377;28;20044;-39
2022/11/12 05:19:02;;;;;;;1.95;1.63;;;;;;;;;;5052654;28;20482;-39
2022/11/12 05:24:12;;;;;;;1.27;1.17;;;;;;;;;;5050008;28;20039;-39
2022/11/12 05:26:38;;;;;;;2.53;1.90;;;;;;;;;;5036198;28;20506;-39
2022/11/12 05:29:05;;;;;;;2.78;1.92;;;;;;;;;;5053691;28;20025;-39
2022/11/12 05:31:31;;;;;;;1.95;1.80;;;;;;;;;;5052201;28;20092;-39
2022/11/12 05:33:57;;;;;;;2.00;1.38;;;;;;;;;;5053452;28;20420;-39
2022/11/12 05:36:23;;;;;;;2.83;1.75;;;;;;;;;;5052697;28;20096;-41
2022/11/12 05:38:49;;;;;;;1.30;1.20;;;;;;;;;;5052764;28;20108;-39
2022/11/12 05:41:14;;;;;;;2.05;1.60;;;;;;;;;;5052642;28;20036;-42
2022/11/12 05:43:40;;;;;;;1.75;1.50;;;;;;;;;;5052282;28;20083;-39
2022/11/12 05:46:06;;;;;;;1.85;1.60;;;;;;;;;;5051891;28;20021;-39
2022/11/12 05:48:32;;;;;;;2.17;1.98;;;;;;;;;;5052355;28;21301;-39
2022/11/12 05:50:58;;;;;;;1.67;1.58;;;;;;;;;;5052999;28;20056;-40
2022/11/12 05:53:24;;;;;;;2.50;1.70;;;;;;;;;;5053131;28;20021;-43
2022/11/12 05:55:51;;;;;;;2.33;1.75;;;;;;;;;;5052057;28;20035;-39
2022/11/12 05:58:17;;;;;;;2.38;1.75;;;;;;;;;;5052572;28;20187;-39
2022/11/12 06:00:43;;;;;;;2.28;1.50;;;;;;;;;;5051653;28;20498;-39
2022/11/12 06:03:09;;;;;;;2.38;1.50;;;;;;;;;;5052342;28;20219;-39
2022/11/12 06:05:35;;;;;;;2.10;1.35;;;;;;;;;;5050872;28;20390;-40
2022/11/12 06:08:02;;;;;;;3.08;2.03;;;;;;;;;;5053372;28;20421;-39
2022/11/12 06:10:28;;;;;;;2.72;1.75;;;;;;;;;;5051503;28;20025;-39
2022/11/12 06:12:54;;;;;;;1.77;1.52;;;;;;;;;;5052782;28;20029;-39
2022/11/12 06:15:20;;;;;;;1.52;1.40;;;;;;;;;;5052029;28;20028;-39
2022/11/12 06:17:47;;;;;;;1.95;1.40;;;;;;;;;;5051311;28;20828;-39
2022/11/12 06:20:13;;;;;;;2.15;1.65;;;;;;;;;;5039786;28;20056;-39
2022/11/12 06:22:39;;;;;;;2.17;1.75;;;;;;;;;;5028084;28;20057;-39
2022/11/12 06:25:05;;;;;;;1.80;1.52;;;;;;;;;;5031562;28;20057;-39
2022/11/12 06:27:31;;;;;;;3.17;1.30;;;;;;;;;;5035322;28;20160;-40
2022/11/12 06:29:57;;;;;;;1.55;1.40;;;;;;;;;;5046423;28;20033;-39
2022/11/12 06:32:24;;;;;;;1.70;1.42;;;;;;;;;;5047786;28;20051;-44
2022/11/12 06:34:51;;;;;;;2.13;1.55;;;;;;;;;;5040385;28;20485;-41
2022/11/12 06:37:17;;;;;;;2.22;1.52;;;;;;;;;;5028696;28;20053;-39
2022/11/12 06:39:43;;;;;;;1.38;1.20;;;;;;;;;;5039653;28;20095;-39
2022/11/12 06:42:09;;;;;;;1.45;1.30;;;;;;;;;;5035045;28;20082;-39
2022/11/12 06:44:35;;;;;;;4.20;1.40;;;;;;;;;;5038492;28;20036;-39
2022/11/12 06:47:01;;;;;;;1.90;1.38;;;;;;;;;;5030777;28;20040;-40
2022/11/12 06:49:27;;;;;;;2.10;1.40;;;;;;;;;;5038197;28;20017;-43
2022/11/12 06:51:53;;;;;;;2.60;1.20;;;;;;;;;;5036124;28;20675;-43
2022/11/12 06:54:19;;;;;;;1.75;1.30;;;;;;;;;;5040376;28;20032;-39
2022/11/12 06:56:45;;;;;;;2.20;1.23;;;;;;;;;;5036332;28;20048;-39
2022/11/12 06:59:11;;;;;;;1.25;1.10;;;;;;;;;;5039832;28;20026;-39
2022/11/12 07:01:37;;;;;;;2.20;1.45;;;;;;;;;;5034186;28;20040;-39
2022/11/12 07:04:03;;;;;;;1.45;1.27;;;;;;;;;;5036788;28;20104;-39
2022/11/12 07:06:29;;;;;;;2.00;1.70;;;;;;;;;;5033286;28;20888;-39
2022/11/12 07:08:55;;;;;;;3.42;1.40;;;;;;;;;;5038750;28;20059;-39
2022/11/12 07:11:21;;;;;;;1.38;1.13;;;;;;;;;;5033650;28;20025;-39
2022/11/12 07:13:47;;;;;;;1.20;1.10;;;;;;;;;;5036986;28;20032;-39
2022/11/12 07:16:17;;;;;;;2.90;1.50;;;;;;;;;;5025026;28;20029;-42
2022/11/12 07:18:43;;;;;;;1.70;1.45;;;;;;;;;;5039677;28;20502;-40
2022/11/12 07:21:13;;;;;;;2.33;1.20;;;;;;;;;;5031536;28;20378;-39
2022/11/12 07:23:39;;;;;;;2.17;1.40;;;;;;;;;;5041741;28;20474;-39
2022/11/12 07:26:13;;;;;;;3.15;1.20;;;;;;;;;;5041783;28;20013;-39
2022/11/12 07:28:38;;;;;;;1.75;1.10;;;;;;;;;;5025584;28;20072;-39
2022/11/12 07:31:06;;;;;;;1.48;1.10;;;;;;;;;;5039268;28;20108;-39
2022/11/12 07:33:33;;;;;;;1.33;1.10;;;;;;;;;;5031391;28;20040;-39
2022/11/12 07:35:59;;;;;;;1.25;1.02;;;;;;;;;;5033910;28;20382;-39
2022/11/12 07:38:25;;;;;;;1.85;1.33;;;;;;;;;;5046217;28;20033;-43
2022/11/12 07:40:51;;;;;;;1.27;1.17;;;;;;;;;;5039510;28;20033;-39
2022/11/12 07:43:17;;;;;;;4.80;1.52;;;;;;;;;;5032653;28;20490;-39
2022/11/12 07:45:43;;;;;;;1.67;1.17;;;;;;;;;;5029401;28;20197;-39
2022/11/12 07:48:09;;;;;;;1.83;1.20;;;;;;;;;;5033476;28;20029;-39
2022/11/12 07:50:35;;;;;;;3.50;1.10;;;;;;;;;;5034819;28;20383;-41
2022/11/12 07:53:01;;;;;;;1.95;1.20;;;;;;;;;;5037462;28;20060;-39
2022/11/12 07:55:27;;;;;;;2.78;1.30;;;;;;;;;;5049741;28;20025;-42
2022/11/12 07:57:53;;;;;;;6.07;1.33;;;;;;;;;;5040428;28;20517;-38
2022/11/12 08:00:19;;;;;;;12.98;1.65;;;;;;;;;;5047839;28;20043;-38
2022/11/12 08:02:45;;;;;;;10.30;2.25;;;;;;;;;;5040590;28;20025;-38
2022/11/12 08:05:11;;;;;;;3.38;1.00;;;;;;;;;;5050865;28;20033;-39
2022/11/12 08:07:37;;;;;;;2.78;1.35;;;;;;;;;;5049106;28;20025;-38
2022/11/12 08:10:03;;;;;;;4.75;1.20;;;;;;;;;;5050652;28;20650;-39
2022/11/12 08:12:29;;;;;;;4.35;1.40;;;;;;;;;;5038897;28;20060;-39
2022/11/12 08:14:55;;;;;;;2.85;1.20;;;;;;;;;;5037077;28;20061;-38
2022/11/12 08:17:21;;;;;;;6.05;1.70;;;;;;;;;;5038648;28;20033;-38
2022/11/12 08:19:46;;;;;;;2.55;1.48;;;;;;;;;;5038343;28;20124;-38
2022/11/12 08:22:12;;;;;;;5.55;1.30;;;;;;;;;;5032678;28;20029;-38
2022/11/12 08:24:38;;;;;;;3.33;1.25;;;;;;;;;;5041825;28;20021;-39
2022/11/12 08:27:04;;;;;;;2.67;1.30;;;;;;;;;;5050891;28;20028;-38
2022/11/12 08:29:30;;;;;;;4.38;1.80;;;;;;;;;;5049436;28;20458;-39
2022/11/12 08:31:56;;;;;;;3.90;1.38;;;;;;;;;;5050552;28;20382;-38
2022/11/12 08:34:22;;;;;;;1.95;1.30;;;;;;;;;;5050772;28;20036;-39
2022/11/12 08:36:49;;;;;;;3.47;1.45;;;;;;;;;;5049503;28;20037;-39
2022/11/12 08:39:15;;;;;;;2.30;1.52;;;;;;;;;;5050828;28;20140;-38
2022/11/12 08:41:41;;;;;;;7.72;2.10;;;;;;;;;;5049539;28;20040;-38
2022/11/12 08:44:07;;;;;;;12.13;2.45;;;;;;;;;;5050740;28;20040;-39
2022/11/12 08:46:34;;;;;;;7.60;2.50;;;;;;;;;;5046278;28;20123;-38
2022/11/12 08:49:00;;;;;;;4.05;1.77;;;;;;;;;;5032400;28;20035;-38
2022/11/12 08:51:26;;;;;;;11.07;2.10;;;;;;;;;;5050924;28;20390;-41
2022/11/12 08:53:52;;;;;;;13.15;2.03;;;;;;;;;;5053891;28;20083;-38
2022/11/12 08:56:18;;;;;;;7.45;1.58;;;;;;;;;;5053284;28;20029;-38
2022/11/12 08:58:44;;;;;;;8.75;1.70;;;;;;;;;;5053102;28;20124;-39
2022/11/12 09:01:10;;;;;;;7.40;2.83;;;;;;;;;;5054783;28;20025;-38
2022/11/12 09:03:36;;;;;;;6.72;1.83;;;;;;;;;;5053191;28;20048;-38
2022/11/12 09:06:03;;;;;;;8.70;1.75;;;;;;;;;;5053257;28;20033;-38
2022/11/12 09:08:29;;;;;;;4.82;1.48;;;;;;;;;;5053207;28;20080;-39
2022/11/12 09:10:58;;;;;;;13.65;2.95;;;;;;;;;;5053530;28;20441;-38
2022/11/12 09:13:24;;;;;;;7.05;1.73;;;;;;;;;;5053749;28;20371;-42
2022/11/12 09:15:50;;;;;;;9.93;1.90;;;;;;;;;;5052209;28;20025;-39
2022/11/12 09:18:17;;;;;;;7.65;1.67;;;;;;;;;;5052936;28;20512;-39
2022/11/12 09:20:43;;;;;;;3.92;1.77;;;;;;;;;;5051654;28;20676;-38
2022/11/12 09:23:14;;;;;;;3.75;1.70;;;;;;;;;;5053324;28;20124;-40
2022/11/12 09:25:41;;;;;;;16.90;2.88;;;;;;;;;;5051376;28;20060;-39
2022/11/12 09:28:09;;;;;;;3.75;1.50;;;;;;;;;;5053364;28;20037;-39
2022/11/12 09:30:36;;;;;;;2.72;1.48;;;;;;;;;;5052555;28;20032;-38
2022/11/12 09:33:03;;;;;;;4.30;1.67;;;;;;;;;;5053732;28;20104;-39
2022/11/12 09:35:29;;;;;;;4.32;1.67;;;;;;;;;;5052285;28;20028;-39
2022/11/12 09:37:56;;;;;;;6.68;2.25;;;;;;;;;;5052822;28;20029;-39
2022/11/12 09:40:28;;;;;;;20.92;1.98;;;;;;;;;;5052617;28;20128;-44
2022/11/12 09:42:54;;;;;;;4.60;1.73;;;;;;;;;;5053170;28;20029;-39
2022/11/12 09:45:24;;;;;;;5.70;2.53;;;;;;;;;;5051550;28;20040;-39
2022/11/12 09:47:53;;;;;;;3.35;1.60;;;;;;;;;;5052629;28;20033;-39
2022/11/12 09:50:28;;;;;;;4.72;2.10;;;;;;;;;;5052119;28;20033;-39
2022/11/12 09:53:23;;;;;;;3.40;1.38;;;;;;;;;;5052860;28;20043;-38
2022/11/12 09:55:49;;;;;;;3.40;1.75;;;;;;;;;;5030717;28;20043;-39
2022/11/12 09:58:16;;;;;;;2.63;1.27;;;;;;;;;;5051496;28;20033;-39
2022/11/12 10:00:44;;;;;;;5.90;1.55;;;;;;;;;;5033351;28;20032;-38
2022/11/12 10:03:19;;;;;;;9.52;1.92;;;;;;;;;;5051924;28;20029;-39
2022/11/12 10:05:52;;;;;;;4.75;1.70;;;;;;;;;;5049808;28;20474;-39
2022/11/12 10:08:30;;;;;;;4.00;1.60;;;;;;;;;;5052650;28;20025;-38
2022/11/12 10:10:56;;;;;;;4.50;1.73;;;;;;;;;;5049182;28;20429;-38
2022/11/12 10:13:33;;;;;;;6.70;2.25;;;;;;;;;;5052056;28;20029;-38
2022/11/12 10:18:57;;;;;;;3.95;1.65;;;;;;;;;;5045996;28;20121;-37
2022/11/12 10:21:34;;;;;;;4.55;2.00;;;;;;;;;;5033783;28;20033;-39
2022/11/12 10:24:00;;;;;;;4.00;1.85;;;;;;;;;;5031926;28;20030;-37
2022/11/12 10:26:27;;;;;;;3.28;1.77;;;;;;;;;;5033044;28;20075;-41
2022/11/12 10:29:02;;;;;;;3.58;1.65;;;;;;;;;;5032809;28;20029;-37
2022/11/12 10:31:28;;;;;;;4.13;2.03;;;;;;;;;;5031425;28;20067;-40
2022/11/12 10:34:08;;;;;;;7.55;1.75;;;;;;;;;;5045899;28;20021;-38
2022/11/12 10:36:35;;;;;;;5.03;1.90;;;;;;;;;;5034256;28;20017;-38
2022/11/12 10:39:01;;;;;;;7.13;1.60;;;;;;;;;;5052073;28;20379;-39
2022/11/12 10:41:29;;;;;;;7.50;1.85;;;;;;;;;;5051350;28;20032;-39
2022/11/12 10:44:02;;;;;;;6.63;1.83;;;;;;;;;;5038836;28;20026;-37
2022/11/12 10:46:30;;;;;;;4.13;1.70;;;;;;;;;;5049583;28;20221;-38
2022/11/12 10:49:00;;;;;;;11.07;2.75;;;;;;;;;;5037911;28;20049;-38
2022/11/12 10:51:29;;;;;;;3.97;1.65;;;;;;;;;;5030721;28;20030;-42
2022/11/12 10:53:54;;;;;;;4.82;2.15;;;;;;;;;;5036328;28;20052;-38
2022/11/12 10:56:24;;;;;;;7.15;1.70;;;;;;;;;;5032125;28;20474;-37
2022/11/12 10:59:25;;;;;;;9.50;2.47;;;;;;;;;;5037362;28;20094;-37
2022/11/12 11:01:58;;;;;;;10.18;2.00;;;;;;;;;;4944694;29;20055;-36
2022/11/12 11:04:29;;;;;;;6.90;2.08;;;;;;;;;;5034969;28;20120;-40
2022/11/12 11:06:59;;;;;;;8.60;2.15;;;;;;;;;;5051686;28;20029;-37
2022/11/12 11:09:25;;;;;;;5.82;2.00;;;;;;;;;;5038953;28;20030;-41
2022/11/12 11:11:55;;;;;;;5.60;2.25;;;;;;;;;;5046635;28;20498;-37
2022/11/12 11:14:34;;;;;;;10.02;2.78;;;;;;;;;;5044220;28;20076;-37
2022/11/12 11:17:03;;;;;;;13.35;2.03;;;;;;;;;;5033822;28;20030;-37
2022/11/12 11:19:36;;;;;;;5.97;2.28;;;;;;;;;;5025287;28;20057;-41
2022/11/12 11:22:05;;;;;;;7.88;2.42;;;;;;;;;;5018927;28;20087;-40
2022/11/12 11:24:38;;;;;;;10.88;2.70;;;;;;;;;;5018976;28;20459;-38
2022/11/12 11:27:08;;;;;;;8.00;2.55;;;;;;;;;;5031140;28;20036;-38
2022/11/12 11:29:34;;;;;;;6.53;2.30;;;;;;;;;;5030669;28;20025;-38
2022/11/12 11:32:00;;;;;;;7.65;2.38;;;;;;;;;;5036665;28;20025;-38
2022/11/12 11:34:33;;;;;;;8.95;2.90;;;;;;;;;;5031074;28;20483;-42
2022/11/12 11:37:02;;;;;;;28.55;3.70;;;;;;;;;;5031425;28;20352;-38
2022/11/12 11:39:51;;;;;;;8.68;2.28;;;;;;;;;;5030220;28;20109;-41
2022/11/12 11:42:19;;;;;;;14.68;3.92;;;;;;;;;;5030764;28;20438;-38
2022/11/12 11:44:48;;;;;;;10.63;3.13;;;;;;;;;;5014996;28;20029;-38
2022/11/12 11:47:29;;;;;;;7.95;2.53;;;;;;;;;;5030953;28;20490;-38
2022/11/12 11:50:02;;;;;;;12.73;3.15;;;;;;;;;;5030382;28;20079;-37
2022/11/12 11:52:34;;;;;;;14.23;2.67;;;;;;;;;;5030099;28;20025;-39
2022/11/12 11:55:00;;;;;;;;;;;;;;;;;;5030739;28;20088;-38
2022/11/12 11:57:35;;;;;;;7.10;3.00;;;;;;;;;;5030083;28;19916;-42
2022/11/12 12:00:04;;;;;;;10.90;2.33;;;;;;;;;;5030719;28;20030;-36
2022/11/12 12:02:36;;;;;;;7.15;2.35;;;;;;;;;;5030481;28;20421;-38
2022/11/12 12:05:02;;;;;;;4.43;2.65;;;;;;;;;;5030998;28;20022;-38
2022/11/12 12:07:44;;;;;;;11.43;3.13;;;;;;;;;;5030069;28;20471;-39
2022/11/12 12:10:24;;;;;;;8.25;2.80;;;;;;;;;;5029969;28;20029;-38
2022/11/12 12:12:51;;;;;;;5.53;2.35;;;;;;;;;;5027326;28;20040;-39
2022/11/12 12:15:36;;;;;;;8.65;3.03;;;;;;;;;;5030370;28;20029;-38
2022/11/12 12:18:17;;;;;;;7.60;2.65;;;;;;;;;;5030048;28;20037;-38
2022/11/12 12:20:48;;;;;;;5.20;2.90;;;;;;;;;;5031296;28;20061;-36
2022/11/12 12:23:37;;;;;;;12.88;3.42;;;;;;;;;;5050930;28;20428;-38
2022/11/12 12:26:06;;;;;;;6.78;2.10;;;;;;;;;;5040846;28;20120;-38
2022/11/12 12:28:39;;;;;;;6.30;2.50;;;;;;;;;;5053819;28;20461;-36
2022/11/12 12:31:07;;;;;;;2.85;1.92;;;;;;;;;;5054604;28;20029;-36
2022/11/12 12:33:54;;;;;;;6.80;2.20;;;;;;;;;;5053577;28;20105;-36
2022/11/12 12:36:24;;;;;;;6.78;2.80;;;;;;;;;;5036781;28;20059;-36
2022/11/12 12:39:03;;;;;;;5.20;2.10;;;;;;;;;;5053576;28;20032;-38
2022/11/12 12:41:33;;;;;;;7.35;2.80;;;;;;;;;;5052855;28;20052;-38
2022/11/12 12:44:03;;;;;;;4.93;3.15;;;;;;;;;;5054182;28;20029;-38
2022/11/12 12:46:31;;;;;;;5.20;2.35;;;;;;;;;;5052780;28;20504;-38
2022/11/12 12:48:58;;;;;;;6.75;2.97;;;;;;;;;;5054434;28;20161;-39
2022/11/12 12:51:27;;;;;;;2.88;2.05;;;;;;;;;;5053680;28;20025;-41
2022/11/12 12:53:53;;;;;;;4.03;1.60;;;;;;;;;;5053994;28;20055;-38
2022/11/12 12:56:22;;;;;;;4.15;2.00;;;;;;;;;;5053211;28;20033;-38
2022/11/12 12:58:49;;;;;;;4.20;1.90;;;;;;;;;;5053263;28;20033;-36
2022/11/12 13:01:21;;;;;;;3.75;1.98;;;;;;;;;;5053625;28;20466;-40
2022/11/12 13:03:47;;;;;;;;;;;;;;;;;;5053546;28;20021;-39
2022/11/12 13:06:22;;;;;;;4.93;2.28;;;;;;;;;;5053146;28;19904;-40
2022/11/12 13:08:54;;;;;;;4.22;2.03;;;;;;;;;;5050870;28;20509;-37
2022/11/12 13:12:20;;;;;;;4.45;2.05;;;;;;;;;;5053080;28;20025;-39
2022/11/12 13:14:31;;;;;;;3.63;1.67;;;;;;;;;;5052657;28;20374;-42
2022/11/12 13:17:06;;;;;;;4.60;2.03;;;;;;;;;;5051436;28;20025;-40
2022/11/12 13:19:51;;;;;;;5.65;2.40;;;;;;;;;;5051653;28;20046;-39
2022/11/12 13:22:16;;;;;;;7.43;2.13;;;;;;;;;;5053796;28;20112;-40
2022/11/12 13:25:01;;;;;;;5.80;2.20;;;;;;;;;;5034107;28;20443;-40
2022/11/12 13:27:40;;;;;;;3.47;1.67;;;;;;;;;;5045655;28;20029;-43
2022/11/12 13:30:21;;;;;;;3.83;2.03;;;;;;;;;;5049841;28;20509;-39
2022/11/12 13:32:47;;;;;;;4.90;2.00;;;;;;;;;;5037863;28;20113;-39
2022/11/12 13:35:21;;;;;;;5.95;2.33;;;;;;;;;;5053243;28;20450;-39
2022/11/12 13:37:50;;;;;;;2.85;1.73;;;;;;;;;;5052591;28;20044;-39
2022/11/12 13:40:22;;;;;;;6.43;2.15;;;;;;;;;;5052713;28;20036;-39
2022/11/12 13:42:48;;;;;;;;;;;;;;;;;;5052512;28;20108;-39
2022/11/12 13:45:18;;;;;;;5.97;1.90;;;;;;;;;;5052273;28;19988;-37
2022/11/12 13:47:45;;;;;;;4.80;1.85;;;;;;;;;;5046238;28;20056;-39
2022/11/12 13:50:15;;;;;;;5.72;2.22;;;;;;;;;;5048553;28;20032;-39
2022/11/12 13:52:41;;;;;;;5.28;2.75;;;;;;;;;;5047625;28;20036;-39
2022/11/12 13:55:18;;;;;;;9.00;2.00;;;;;;;;;;5052338;28;20111;-37
2022/11/12 13:57:50;;;;;;;3.53;1.75;;;;;;;;;;5050484;28;20489;-37
2022/11/12 14:00:16;;;;;;;;;;;;;;;;;;5052916;28;20025;-37
2022/11/12 14:02:43;;;;;;;3.42;2.17;;;;;;;;;;5051665;28;19908;-39
2022/11/12 14:05:14;;;;;;;4.45;2.03;;;;;;;;;;5052085;28;20029;-37
2022/11/12 14:07:45;;;;;;;4.10;2.13;;;;;;;;;;5051309;28;20036;-37
2022/11/12 14:10:20;;;;;;;4.80;1.90;;;;;;;;;;5052268;28;20025;-40
2022/11/12 14:12:54;;;;;;;3.90;2.05;;;;;;;;;;5037691;28;20044;-41
2022/11/12 14:15:39;;;;;;;4.50;1.83;;;;;;;;;;5050504;28;20032;-40
2022/11/12 14:18:05;;;;;;;4.65;1.83;;;;;;;;;;5046250;28;20045;-47
2022/11/12 14:20:36;;;;;;;5.20;1.92;;;;;;;;;;5055393;28;20045;-45
2022/11/12 14:23:10;;;;;;;4.38;2.17;;;;;;;;;;5049294;28;20037;-46
2022/11/12 14:25:45;;;;;;;3.83;1.67;;;;;;;;;;5047318;28;20556;-50
2022/11/12 14:28:30;;;;;;;3.08;1.80;;;;;;;;;;5046011;28;20041;-46
2022/11/12 14:30:57;;;;;;;6.22;1.60;;;;;;;;;;5034281;28;20021;-46
2022/11/12 14:33:25;;;;;;;4.97;1.98;;;;;;;;;;5051108;28;20079;-48
2022/11/12 14:35:52;;;;;;;4.35;2.30;;;;;;;;;;5048763;28;20021;-45
2022/11/12 14:38:25;;;;;;;7.20;2.05;;;;;;;;;;5048466;28;20432;-48
2022/11/12 14:40:56;;;;;;;2.92;1.60;;;;;;;;;;5044580;28;20018;-46
2022/11/12 14:43:36;;;;;;;6.13;2.05;;;;;;;;;;5043610;28;20033;-46
2022/11/12 14:46:03;;;;;;;3.67;2.10;;;;;;;;;;5041098;28;20022;-46
2022/11/12 14:48:32;;;;;;;7.80;2.20;;;;;;;;;;5048981;28;20037;-46
2022/11/12 14:51:03;;;;;;;3.22;1.50;;;;;;;;;;5045065;28;20021;-47
2022/11/12 14:53:32;;;;;;;3.45;1.75;;;;;;;;;;5043310;28;20486;-46
2022/11/12 14:55:58;;;;;;;3.78;1.73;;;;;;;;;;5047941;28;20025;-45
2022/11/12 14:58:26;;;;;;;2.33;2.00;;;;;;;;;;5049816;28;20044;-49
2022/11/12 15:00:53;;;;;;;3.75;1.80;;;;;;;;;;5043226;28;20025;-45
2022/11/12 15:03:22;;;;;;;3.55;1.77;;;;;;;;;;5048242;28;20069;-45
2022/11/12 15:06:03;;;;;;;4.55;1.95;;;;;;;;;;5044986;28;20308;-46
2022/11/12 15:08:34;;;;;;;3.72;2.05;;;;;;;;;;5046200;28;20045;-47
2022/11/12 15:11:19;;;;;;;3.97;1.85;;;;;;;;;;5042165;28;20014;-46
2022/11/12 15:13:45;;;;;;;4.53;2.08;;;;;;;;;;5042569;28;20358;-46
2022/11/12 15:16:16;;;;;;;8.63;1.80;;;;;;;;;;5042983;28;20041;-45